This is the latest recevied weather packets stored in our database for station/object N8VDS-10. If no packets are shown the sender has not sent any weather packets the latest 1 day(s).
| Time | Temp. | Humidity | Pressure | Rain* | Wind** | Luminosity | Snow |
|---|---|---|---|---|---|---|---|
| 1778073828 | 6.11° C | 59% | 1016 hPa | 0 mm | - | 329 W/m² | - |
| 1778073222 | 6.67° C | 58% | 1015.9 hPa | 0 mm | - | 315 W/m² | - |
| 1778071710 | 5.56° C | 64% | 1015.6 hPa | 0 mm | - | 242 W/m² | - |
| 1778071104 | 5° C | 68% | 1015.6 hPa | 0 mm | - | 214 W/m² | - |
| 1778070196 | 5° C | 67% | 1015.7 hPa | 0 mm | - | 177 W/m² | - |
| 1778069591 | 5° C | 67% | 1015.2 hPa | 0 mm | - | 172 W/m² | - |
| 1778068986 | 3.89° C | 70% | 1015 hPa | 0 mm | - | 107 W/m² | - |
| 1778067475 | 4.44° C | 75% | 1014.6 hPa | 0 mm | - | 59 W/m² | - |
| 1778066868 | 4.44° C | 76% | 1014.6 hPa | 0 mm | - | 65 W/m² | - |
| 1778066566 | 4.44° C | 76% | 1014.5 hPa | 0 mm | - | 51 W/m² | - |
| 1778066263 | 3.89° C | 76% | 1014.5 hPa | 0 mm | - | 42 W/m² | - |
| 1778064749 | 3.89° C | 78% | 1013.9 hPa | 0 mm | - | 18 W/m² | - |
| 1778064447 | 3.89° C | 77% | 1013.7 hPa | 0 mm | - | 13 W/m² | - |
| 1778064144 | 3.89° C | 77% | 1014 hPa | 0 mm | - | 11 W/m² | - |
| 1778063538 | 3.89° C | 77% | 1013.5 hPa | 0 mm | - | 5 W/m² | - |
| 1778063236 | 3.89° C | 77% | 1013.7 hPa | 0 mm | - | 4 W/m² | - |
| 1778062934 | 3.89° C | 76% | 1013.3 hPa | 0 mm | - | 2 W/m² | - |
| 1778062327 | 4.44° C | 76% | 1013.4 hPa | 0 mm | - | 1 W/m² | - |
| 1778062025 | 4.44° C | 76% | 1013.2 hPa | 0 mm | - | 0 W/m² | - |
| 1778061723 | 4.44° C | 76% | 1013.1 hPa | 0 mm | - | 0 W/m² | - |
| 1778061421 | 5° C | 76% | 1013.1 hPa | 0 mm | - | 0 W/m² | - |
| 1778060815 | 5° C | 76% | 1012.8 hPa | 0 mm | - | 0 W/m² | - |
| 1778059908 | 5.56° C | 80% | 1012.8 hPa | 0 mm | - | 0 W/m² | - |
| 1778058396 | 5.56° C | 84% | 1012.7 hPa | 0 mm | - | 0 W/m² | - |
| 1778057789 | 6.11° C | 83% | 1012.7 hPa | 0 mm | - | 0 W/m² | - |
* Rain latest hour (hover to see other rain measurements)
** Current wind speed in m/s (hover to see current wind gust speed)